sensor_id;sensor_type;location;lat;lon;timestamp;pressure;altitude;pressure_sealevel;temperature;humidity
2711;BME280;20721;47.402;8.550;2023-04-30T00:01:02;96187;;;15.37;52.41
2711;BME280;20721;47.402;8.550;2023-04-30T00:02:02;96188;;;15.28;52.57
2711;BME280;20721;47.402;8.550;2023-04-30T00:03:03;96185;;;15.23;52.87
2711;BME280;20721;47.402;8.550;2023-04-30T00:04:02;96186;;;15.24;53.00
2711;BME280;20721;47.402;8.550;2023-04-30T00:05:02;96188;;;15.21;52.96
2711;BME280;20721;47.402;8.550;2023-04-30T00:06:02;96188;;;15.22;52.92
2711;BME280;20721;47.402;8.550;2023-04-30T00:07:02;96189;;;15.20;53.09
2711;BME280;20721;47.402;8.550;2023-04-30T00:08:03;96187;;;15.19;53.11
2711;BME280;20721;47.402;8.550;2023-04-30T00:09:02;96187;;;15.20;53.13
2711;BME280;20721;47.402;8.550;2023-04-30T00:10:04;96188;;;15.23;53.15
2711;BME280;20721;47.402;8.550;2023-04-30T00:11:02;96184;;;15.26;53.08
2711;BME280;20721;47.402;8.550;2023-04-30T00:12:02;96183;;;15.30;52.89
2711;BME280;20721;47.402;8.550;2023-04-30T00:13:02;96182;;;15.33;52.91
2711;BME280;20721;47.402;8.550;2023-04-30T00:14:02;96184;;;15.29;52.69
2711;BME280;20721;47.402;8.550;2023-04-30T00:15:02;96182;;;15.23;53.01
2711;BME280;20721;47.402;8.550;2023-04-30T00:16:02;96182;;;15.22;53.03
2711;BME280;20721;47.402;8.550;2023-04-30T00:17:02;96184;;;15.19;53.06
2711;BME280;20721;47.402;8.550;2023-04-30T00:18:02;96181;;;15.18;53.15
2711;BME280;20721;47.402;8.550;2023-04-30T00:19:02;96183;;;15.16;53.36
2711;BME280;20721;47.402;8.550;2023-04-30T00:20:02;96181;;;15.07;53.37
2711;BME280;20721;47.402;8.550;2023-04-30T00:21:02;96183;;;15.02;53.48
2711;BME280;20721;47.402;8.550;2023-04-30T00:22:02;96183;;;14.97;53.66
2711;BME280;20721;47.402;8.550;2023-04-30T00:23:02;96184;;;14.91;53.82
2711;BME280;20721;47.402;8.550;2023-04-30T00:25:02;96173;;;14.96;53.92
2711;BME280;20721;47.402;8.550;2023-04-30T00:26:02;96174;;;14.99;53.97
2711;BME280;20721;47.402;8.550;2023-04-30T00:27:02;96174;;;15.03;53.83
2711;BME280;20721;47.402;8.550;2023-04-30T00:28:02;96177;;;15.05;53.63
2711;BME280;20721;47.402;8.550;2023-04-30T00:29:02;96176;;;15.00;53.68
2711;BME280;20721;47.402;8.550;2023-04-30T00:30:02;96178;;;14.93;53.77
2711;BME280;20721;47.402;8.550;2023-04-30T00:31:05;96180;;;14.88;53.91
2711;BME280;20721;47.402;8.550;2023-04-30T00:32:02;96176;;;14.84;54.17
2711;BME280;20721;47.402;8.550;2023-04-30T00:33:02;96180;;;14.83;54.11
2711;BME280;20721;47.402;8.550;2023-04-30T00:34:02;96176;;;14.81;54.29
2711;BME280;20721;47.402;8.550;2023-04-30T00:35:02;96171;;;14.79;54.28
2711;BME280;20721;47.402;8.550;2023-04-30T00:38:02;96170;;;14.81;54.38
2711;BME280;20721;47.402;8.550;2023-04-30T00:39:02;96172;;;14.84;54.32
2711;BME280;20721;47.402;8.550;2023-04-30T00:40:02;96171;;;14.86;54.31
2711;BME280;20721;47.402;8.550;2023-04-30T00:42:02;96176;;;14.88;54.38
2711;BME280;20721;47.402;8.550;2023-04-30T00:43:02;96175;;;14.91;54.26
2711;BME280;20721;47.402;8.550;2023-04-30T00:46:04;96172;;;14.92;54.18
2711;BME280;20721;47.402;8.550;2023-04-30T00:49:03;96169;;;14.94;54.23
2711;BME280;20721;47.402;8.550;2023-04-30T00:50:02;96165;;;14.92;54.17
2711;BME280;20721;47.402;8.550;2023-04-30T00:51:02;96165;;;14.91;54.24
2711;BME280;20721;47.402;8.550;2023-04-30T00:52:02;96163;;;14.87;54.20
2711;BME280;20721;47.402;8.550;2023-04-30T00:53:02;96163;;;14.84;54.27
2711;BME280;20721;47.402;8.550;2023-04-30T00:54:02;96166;;;14.83;54.45
2711;BME280;20721;47.402;8.550;2023-04-30T00:55:02;96165;;;14.72;54.62
2711;BME280;20721;47.402;8.550;2023-04-30T00:57:02;96163;;;14.75;54.57
2711;BME280;20721;47.402;8.550;2023-04-30T00:58:02;96170;;;14.77;54.72
2711;BME280;20721;47.402;8.550;2023-04-30T00:59:02;96166;;;14.83;54.56
2711;BME280;20721;47.402;8.550;2023-04-30T01:00:03;96172;;;14.86;54.53
2711;BME280;20721;47.402;8.550;2023-04-30T01:01:02;96168;;;14.88;54.44
2711;BME280;20721;47.402;8.550;2023-04-30T01:02:02;96170;;;14.86;54.37
2711;BME280;20721;47.402;8.550;2023-04-30T01:04:02;96166;;;14.89;54.40
2711;BME280;20721;47.402;8.550;2023-04-30T01:05:03;96166;;;14.91;54.27
2711;BME280;20721;47.402;8.550;2023-04-30T01:06:02;96166;;;14.89;54.33
2711;BME280;20721;47.402;8.550;2023-04-30T01:07:02;96164;;;14.91;54.30
2711;BME280;20721;47.402;8.550;2023-04-30T01:08:02;96161;;;14.95;54.26
2711;BME280;20721;47.402;8.550;2023-04-30T01:09:02;96161;;;14.93;54.23
2711;BME280;20721;47.402;8.550;2023-04-30T01:10:02;96163;;;14.88;54.30
2711;BME280;20721;47.402;8.550;2023-04-30T01:12:07;96160;;;14.74;54.72
2711;BME280;20721;47.402;8.550;2023-04-30T01:13:09;96162;;;14.72;54.80
2711;BME280;20721;47.402;8.550;2023-04-30T01:14:06;96158;;;14.73;54.83
2711;BME280;20721;47.402;8.550;2023-04-30T01:15:20;96161;;;14.75;54.83
2711;BME280;20721;47.402;8.550;2023-04-30T01:16:12;96158;;;14.77;54.80
2711;BME280;20721;47.402;8.550;2023-04-30T01:17:04;96157;;;14.80;54.76
2711;BME280;20721;47.402;8.550;2023-04-30T01:18:03;96154;;;14.82;54.69
2711;BME280;20721;47.402;8.550;2023-04-30T01:20:02;96157;;;14.82;54.73
2711;BME280;20721;47.402;8.550;2023-04-30T01:21:03;96155;;;14.83;54.63
2711;BME280;20721;47.402;8.550;2023-04-30T01:22:03;96156;;;14.82;54.69
2711;BME280;20721;47.402;8.550;2023-04-30T01:24:11;96152;;;14.82;54.62
2711;BME280;20721;47.402;8.550;2023-04-30T01:28:18;96154;;;14.79;54.96
2711;BME280;20721;47.402;8.550;2023-04-30T01:29:02;96156;;;14.82;54.79
2711;BME280;20721;47.402;8.550;2023-04-30T01:30:02;96154;;;14.76;54.78
2711;BME280;20721;47.402;8.550;2023-04-30T01:31:02;96154;;;14.75;54.80
2711;BME280;20721;47.402;8.550;2023-04-30T01:32:02;96158;;;14.74;54.91
2711;BME280;20721;47.402;8.550;2023-04-30T01:33:02;96154;;;14.72;54.87
2711;BME280;20721;47.402;8.550;2023-04-30T01:35:03;96155;;;14.68;55.08
2711;BME280;20721;47.402;8.550;2023-04-30T01:36:20;96156;;;14.65;54.96
2711;BME280;20721;47.402;8.550;2023-04-30T01:40:08;96156;;;14.60;55.17
2711;BME280;20721;47.402;8.550;2023-04-30T01:41:08;96154;;;14.59;55.09
2711;BME280;20721;47.402;8.550;2023-04-30T01:42:11;96154;;;14.60;55.04
2711;BME280;20721;47.402;8.550;2023-04-30T01:47:03;96156;;;14.62;54.97
2711;BME280;20721;47.402;8.550;2023-04-30T01:52:05;96152;;;14.73;54.82
2711;BME280;20721;47.402;8.550;2023-04-30T01:53:04;96151;;;14.74;54.82
2711;BME280;20721;47.402;8.550;2023-04-30T01:54:05;96151;;;14.75;54.77
2711;BME280;20721;47.402;8.550;2023-04-30T01:55:04;96149;;;14.76;54.82
2711;BME280;20721;47.402;8.550;2023-04-30T01:57:06;96149;;;14.77;54.64
2711;BME280;20721;47.402;8.550;2023-04-30T01:58:04;96146;;;14.79;54.56
2711;BME280;20721;47.402;8.550;2023-04-30T01:59:03;96149;;;14.77;54.50
2711;BME280;20721;47.402;8.550;2023-04-30T02:00:03;96146;;;14.72;54.70
2711;BME280;20721;47.402;8.550;2023-04-30T02:01:02;96148;;;14.68;54.58
2711;BME280;20721;47.402;8.550;2023-04-30T02:02:02;96148;;;14.64;54.76
2711;BME280;20721;47.402;8.550;2023-04-30T02:03:02;96149;;;14.55;54.92
2711;BME280;20721;47.402;8.550;2023-04-30T02:04:03;96148;;;14.49;55.05
2711;BME280;20721;47.402;8.550;2023-04-30T02:05:02;96144;;;14.44;55.26
2711;BME280;20721;47.402;8.550;2023-04-30T02:06:02;96145;;;14.41;55.23
2711;BME280;20721;47.402;8.550;2023-04-30T02:07:02;96143;;;14.38;55.09
2711;BME280;20721;47.402;8.550;2023-04-30T02:08:02;96146;;;14.36;55.53
2711;BME280;20721;47.402;8.550;2023-04-30T02:09:04;96145;;;14.37;55.43
2711;BME280;20721;47.402;8.550;2023-04-30T02:10:03;96141;;;14.35;55.42
2711;BME280;20721;47.402;8.550;2023-04-30T02:11:03;96143;;;14.34;55.60
2711;BME280;20721;47.402;8.550;2023-04-30T02:13:02;96140;;;14.36;55.84
2711;BME280;20721;47.402;8.550;2023-04-30T02:14:02;96142;;;14.33;55.57
2711;BME280;20721;47.402;8.550;2023-04-30T02:15:03;96143;;;14.30;55.69
2711;BME280;20721;47.402;8.550;2023-04-30T02:16:03;96144;;;14.34;55.73
2711;BME280;20721;47.402;8.550;2023-04-30T02:17:03;96142;;;14.40;55.65
2711;BME280;20721;47.402;8.550;2023-04-30T02:18:02;96137;;;14.45;55.49
2711;BME280;20721;47.402;8.550;2023-04-30T02:19:02;96142;;;14.49;55.35
2711;BME280;20721;47.402;8.550;2023-04-30T02:20:02;96140;;;14.51;55.17
2711;BME280;20721;47.402;8.550;2023-04-30T02:21:02;96139;;;14.49;55.29
2711;BME280;20721;47.402;8.550;2023-04-30T02:22:02;96138;;;14.47;55.13
2711;BME280;20721;47.402;8.550;2023-04-30T02:23:02;96141;;;14.39;55.39
2711;BME280;20721;47.402;8.550;2023-04-30T02:24:02;96142;;;14.32;55.56
2711;BME280;20721;47.402;8.550;2023-04-30T02:25:02;96142;;;14.30;55.69
2711;BME280;20721;47.402;8.550;2023-04-30T02:26:02;96143;;;14.24;55.86
2711;BME280;20721;47.402;8.550;2023-04-30T02:27:02;96144;;;14.26;55.81
2711;BME280;20721;47.402;8.550;2023-04-30T02:28:02;96141;;;14.28;55.82
2711;BME280;20721;47.402;8.550;2023-04-30T02:29:02;96139;;;14.31;55.77
2711;BME280;20721;47.402;8.550;2023-04-30T02:30:03;96139;;;14.33;55.66
2711;BME280;20721;47.402;8.550;2023-04-30T02:31:02;96140;;;14.36;55.69
2711;BME280;20721;47.402;8.550;2023-04-30T02:32:02;96138;;;14.32;55.52
2711;BME280;20721;47.402;8.550;2023-04-30T02:33:02;96139;;;14.24;55.79
2711;BME280;20721;47.402;8.550;2023-04-30T02:34:02;96136;;;14.23;55.99
2711;BME280;20721;47.402;8.550;2023-04-30T02:35:02;96133;;;14.24;56.05
2711;BME280;20721;47.402;8.550;2023-04-30T02:36:02;96137;;;14.22;56.02
2711;BME280;20721;47.402;8.550;2023-04-30T02:37:02;96135;;;14.20;56.16
2711;BME280;20721;47.402;8.550;2023-04-30T02:38:02;96137;;;14.23;56.03
2711;BME280;20721;47.402;8.550;2023-04-30T02:39:02;96137;;;14.25;56.12
2711;BME280;20721;47.402;8.550;2023-04-30T02:40:02;96133;;;14.28;55.84
2711;BME280;20721;47.402;8.550;2023-04-30T02:41:02;96139;;;14.23;55.88
2711;BME280;20721;47.402;8.550;2023-04-30T02:42:03;96137;;;14.12;56.52
2711;BME280;20721;47.402;8.550;2023-04-30T02:43:02;96134;;;14.13;56.38
2711;BME280;20721;47.402;8.550;2023-04-30T02:44:02;96135;;;14.14;56.25
2711;BME280;20721;47.402;8.550;2023-04-30T02:45:02;96129;;;14.13;56.20
2711;BME280;20721;47.402;8.550;2023-04-30T02:46:02;96133;;;14.15;56.23
2711;BME280;20721;47.402;8.550;2023-04-30T02:47:02;96132;;;14.13;56.19
2711;BME280;20721;47.402;8.550;2023-04-30T02:48:02;96135;;;14.10;56.34
2711;BME280;20721;47.402;8.550;2023-04-30T02:49:02;96133;;;14.07;56.39
2711;BME280;20721;47.402;8.550;2023-04-30T02:50:03;96131;;;14.02;56.61
2711;BME280;20721;47.402;8.550;2023-04-30T02:51:03;96132;;;14.00;56.76
2711;BME280;20721;47.402;8.550;2023-04-30T02:52:02;96133;;;14.03;56.59
2711;BME280;20721;47.402;8.550;2023-04-30T02:53:02;96133;;;14.07;56.62
2711;BME280;20721;47.402;8.550;2023-04-30T02:54:02;96132;;;14.15;56.46
2711;BME280;20721;47.402;8.550;2023-04-30T02:55:03;96130;;;14.19;56.28
2711;BME280;20721;47.402;8.550;2023-04-30T02:56:02;96129;;;14.21;56.13
2711;BME280;20721;47.402;8.550;2023-04-30T02:57:02;96128;;;14.25;56.17
2711;BME280;20721;47.402;8.550;2023-04-30T02:58:02;96128;;;14.27;56.15
2711;BME280;20721;47.402;8.550;2023-04-30T02:59:02;96133;;;14.23;55.87
2711;BME280;20721;47.402;8.550;2023-04-30T03:00:02;96125;;;14.16;56.20
2711;BME280;20721;47.402;8.550;2023-04-30T03:01:02;96127;;;14.20;56.27
2711;BME280;20721;47.402;8.550;2023-04-30T03:02:02;96127;;;14.23;56.09
2711;BME280;20721;47.402;8.550;2023-04-30T03:03:02;96125;;;14.27;56.02
2711;BME280;20721;47.402;8.550;2023-04-30T03:04:03;96128;;;14.31;55.92
2711;BME280;20721;47.402;8.550;2023-04-30T03:05:03;96125;;;14.28;55.79
2711;BME280;20721;47.402;8.550;2023-04-30T03:06:03;96127;;;14.25;56.04
2711;BME280;20721;47.402;8.550;2023-04-30T03:09:02;96130;;;14.26;56.12
2711;BME280;20721;47.402;8.550;2023-04-30T03:10:02;96131;;;14.28;56.16
2711;BME280;20721;47.402;8.550;2023-04-30T03:11:02;96124;;;14.30;56.10
2711;BME280;20721;47.402;8.550;2023-04-30T03:12:02;96125;;;14.28;56.11
2711;BME280;20721;47.402;8.550;2023-04-30T03:14:03;96125;;;14.26;56.06
2711;BME280;20721;47.402;8.550;2023-04-30T03:15:02;96127;;;14.20;56.32
2711;BME280;20721;47.402;8.550;2023-04-30T03:16:03;96126;;;14.13;56.38
2711;BME280;20721;47.402;8.550;2023-04-30T03:17:02;96126;;;14.08;56.51
2711;BME280;20721;47.402;8.550;2023-04-30T03:18:03;96125;;;14.05;56.58
2711;BME280;20721;47.402;8.550;2023-04-30T03:19:02;96127;;;14.06;56.73
2711;BME280;20721;47.402;8.550;2023-04-30T03:20:02;96127;;;14.05;56.77
2711;BME280;20721;47.402;8.550;2023-04-30T03:21:02;96122;;;14.09;56.73
2711;BME280;20721;47.402;8.550;2023-04-30T03:22:02;96124;;;14.15;56.57
2711;BME280;20721;47.402;8.550;2023-04-30T03:23:02;96120;;;14.18;56.48
2711;BME280;20721;47.402;8.550;2023-04-30T03:24:02;96121;;;14.20;56.44
2711;BME280;20721;47.402;8.550;2023-04-30T03:25:02;96122;;;14.21;56.54
2711;BME280;20721;47.402;8.550;2023-04-30T03:26:02;96119;;;14.22;56.43
2711;BME280;20721;47.402;8.550;2023-04-30T03:27:02;96119;;;14.24;56.47
2711;BME280;20721;47.402;8.550;2023-04-30T03:28:02;96114;;;14.23;56.36
2711;BME280;20721;47.402;8.550;2023-04-30T03:29:02;96116;;;14.21;56.43
2711;BME280;20721;47.402;8.550;2023-04-30T03:30:02;96116;;;14.20;56.55
2711;BME280;20721;47.402;8.550;2023-04-30T03:31:05;96117;;;14.19;56.58
2711;BME280;20721;47.402;8.550;2023-04-30T03:32:02;96117;;;14.24;56.60
2711;BME280;20721;47.402;8.550;2023-04-30T03:33:05;96112;;;14.25;56.46
2711;BME280;20721;47.402;8.550;2023-04-30T03:34:02;96112;;;14.28;56.58
2711;BME280;20721;47.402;8.550;2023-04-30T03:35:03;96113;;;14.32;56.29
2711;BME280;20721;47.402;8.550;2023-04-30T03:36:02;96110;;;14.30;56.27
2711;BME280;20721;47.402;8.550;2023-04-30T03:37:02;96110;;;14.31;56.42
2711;BME280;20721;47.402;8.550;2023-04-30T03:38:02;96113;;;14.29;56.47
2711;BME280;20721;47.402;8.550;2023-04-30T03:39:03;96115;;;14.31;56.49
2711;BME280;20721;47.402;8.550;2023-04-30T03:40:03;96114;;;14.32;56.42
2711;BME280;20721;47.402;8.550;2023-04-30T03:41:02;96118;;;14.33;56.38
2711;BME280;20721;47.402;8.550;2023-04-30T03:42:02;96110;;;14.28;56.48
2711;BME280;20721;47.402;8.550;2023-04-30T03:43:02;96114;;;14.25;56.56
2711;BME280;20721;47.402;8.550;2023-04-30T03:44:02;96113;;;14.18;56.69
2711;BME280;20721;47.402;8.550;2023-04-30T03:45:03;96113;;;14.15;56.80
2711;BME280;20721;47.402;8.550;2023-04-30T03:46:02;96112;;;14.07;56.88
2711;BME280;20721;47.402;8.550;2023-04-30T03:47:02;96110;;;13.99;57.23
2711;BME280;20721;47.402;8.550;2023-04-30T03:48:02;96113;;;13.97;57.45
2711;BME280;20721;47.402;8.550;2023-04-30T03:50:03;96117;;;13.99;57.35
2711;BME280;20721;47.402;8.550;2023-04-30T03:51:02;96118;;;14.00;57.29
2711;BME280;20721;47.402;8.550;2023-04-30T03:52:04;96116;;;14.03;57.28
2711;BME280;20721;47.402;8.550;2023-04-30T03:53:02;96118;;;14.05;57.18
2711;BME280;20721;47.402;8.550;2023-04-30T03:54:02;96116;;;14.04;57.14
2711;BME280;20721;47.402;8.550;2023-04-30T03:55:03;96116;;;13.98;57.40
2711;BME280;20721;47.402;8.550;2023-04-30T03:56:02;96113;;;13.92;57.57
2711;BME280;20721;47.402;8.550;2023-04-30T03:58:02;96112;;;13.98;57.63
2711;BME280;20721;47.402;8.550;2023-04-30T03:59:02;96114;;;14.02;57.61
2711;BME280;20721;47.402;8.550;2023-04-30T04:00:07;96113;;;14.00;57.46
2711;BME280;20721;47.402;8.550;2023-04-30T04:01:02;96115;;;13.95;57.58
2711;BME280;20721;47.402;8.550;2023-04-30T04:02:02;96118;;;13.92;57.64
2711;BME280;20721;47.402;8.550;2023-04-30T04:03:03;96115;;;13.77;57.89
2711;BME280;20721;47.402;8.550;2023-04-30T04:04:02;96113;;;13.73;58.19
2711;BME280;20721;47.402;8.550;2023-04-30T04:07:03;96115;;;13.72;58.24
2711;BME280;20721;47.402;8.550;2023-04-30T04:08:02;96116;;;13.70;58.41
2711;BME280;20721;47.402;8.550;2023-04-30T04:09:03;96117;;;13.74;58.12
2711;BME280;20721;47.402;8.550;2023-04-30T04:10:02;96117;;;13.71;58.29
2711;BME280;20721;47.402;8.550;2023-04-30T04:11:02;96117;;;13.70;58.39
2711;BME280;20721;47.402;8.550;2023-04-30T04:12:02;96117;;;13.68;58.42
2711;BME280;20721;47.402;8.550;2023-04-30T04:13:02;96118;;;13.71;58.59
2711;BME280;20721;47.402;8.550;2023-04-30T04:14:02;96123;;;13.76;58.39
2711;BME280;20721;47.402;8.550;2023-04-30T04:15:03;96122;;;13.75;58.36
2711;BME280;20721;47.402;8.550;2023-04-30T04:16:03;96122;;;13.76;58.28
2711;BME280;20721;47.402;8.550;2023-04-30T04:17:04;96126;;;13.68;58.24
2711;BME280;20721;47.402;8.550;2023-04-30T04:18:02;96127;;;13.66;58.46
2711;BME280;20721;47.402;8.550;2023-04-30T04:19:03;96129;;;13.57;58.67
2711;BME280;20721;47.402;8.550;2023-04-30T04:20:05;96128;;;13.50;59.19
2711;BME280;20721;47.402;8.550;2023-04-30T04:21:03;96131;;;13.49;59.04
2711;BME280;20721;47.402;8.550;2023-04-30T04:22:03;96132;;;13.48;58.99
2711;BME280;20721;47.402;8.550;2023-04-30T04:23:02;96129;;;13.45;59.02
2711;BME280;20721;47.402;8.550;2023-04-30T04:24:07;96126;;;13.50;59.13
2711;BME280;20721;47.402;8.550;2023-04-30T04:25:02;96127;;;13.56;59.07
2711;BME280;20721;47.402;8.550;2023-04-30T04:26:03;96128;;;13.62;59.05
2711;BME280;20721;47.402;8.550;2023-04-30T04:27:02;96129;;;13.66;58.97
2711;BME280;20721;47.402;8.550;2023-04-30T04:28:02;96125;;;13.69;58.81
2711;BME280;20721;47.402;8.550;2023-04-30T04:30:03;96129;;;13.76;58.67
2711;BME280;20721;47.402;8.550;2023-04-30T04:31:02;96133;;;13.83;58.43
2711;BME280;20721;47.402;8.550;2023-04-30T04:32:04;96132;;;13.84;58.33
2711;BME280;20721;47.402;8.550;2023-04-30T04:33:03;96135;;;13.87;58.47
2711;BME280;20721;47.402;8.550;2023-04-30T04:34:03;96137;;;13.91;58.39
2711;BME280;20721;47.402;8.550;2023-04-30T04:35:03;96138;;;13.92;58.18
2711;BME280;20721;47.402;8.550;2023-04-30T04:36:03;96143;;;13.97;58.08
2711;BME280;20721;47.402;8.550;2023-04-30T04:37:02;96137;;;13.98;58.00
2711;BME280;20721;47.402;8.550;2023-04-30T04:38:03;96139;;;14.01;57.98
2711;BME280;20721;47.402;8.550;2023-04-30T04:39:02;96137;;;14.06;57.94
2711;BME280;20721;47.402;8.550;2023-04-30T04:40:04;96141;;;14.14;57.65
2711;BME280;20721;47.402;8.550;2023-04-30T04:41:03;96140;;;14.19;57.52
2711;BME280;20721;47.402;8.550;2023-04-30T04:42:03;96139;;;14.24;57.22
2711;BME280;20721;47.402;8.550;2023-04-30T04:43:02;96143;;;14.29;57.13
2711;BME280;20721;47.402;8.550;2023-04-30T04:44:03;96140;;;14.32;56.99
2711;BME280;20721;47.402;8.550;2023-04-30T04:46:03;96139;;;14.34;56.84
2711;BME280;20721;47.402;8.550;2023-04-30T04:47:03;96144;;;14.36;56.92
2711;BME280;20721;47.402;8.550;2023-04-30T04:48:03;96144;;;14.39;56.92
2711;BME280;20721;47.402;8.550;2023-04-30T04:50:02;96145;;;14.36;56.72
2711;BME280;20721;47.402;8.550;2023-04-30T04:51:02;96146;;;14.30;56.72
2711;BME280;20721;47.402;8.550;2023-04-30T04:52:04;96144;;;14.27;56.90
2711;BME280;20721;47.402;8.550;2023-04-30T04:53:02;96148;;;14.30;57.01
2711;BME280;20721;47.402;8.550;2023-04-30T04:55:03;96145;;;14.28;57.02
2711;BME280;20721;47.402;8.550;2023-04-30T04:57:02;96146;;;14.31;57.05
2711;BME280;20721;47.402;8.550;2023-04-30T04:58:02;96149;;;14.32;56.83
2711;BME280;20721;47.402;8.550;2023-04-30T04:59:02;96144;;;14.26;57.05
2711;BME280;20721;47.402;8.550;2023-04-30T05:00:05;96145;;;14.25;57.10
2711;BME280;20721;47.402;8.550;2023-04-30T05:01:04;96146;;;14.24;57.05
2711;BME280;20721;47.402;8.550;2023-04-30T05:02:03;96146;;;14.26;57.08
2711;BME280;20721;47.402;8.550;2023-04-30T05:03:03;96144;;;14.31;56.93
2711;BME280;20721;47.402;8.550;2023-04-30T05:04:03;96146;;;14.33;56.93
2711;BME280;20721;47.402;8.550;2023-04-30T05:05:03;96142;;;14.34;56.65
2711;BME280;20721;47.402;8.550;2023-04-30T05:06:03;96143;;;14.33;56.68
2711;BME280;20721;47.402;8.550;2023-04-30T05:07:02;96144;;;14.31;56.90
2711;BME280;20721;47.402;8.550;2023-04-30T05:08:03;96146;;;14.27;56.86
2711;BME280;20721;47.402;8.550;2023-04-30T05:09:05;96143;;;14.25;57.06
2711;BME280;20721;47.402;8.550;2023-04-30T05:11:03;96140;;;14.27;57.16
2711;BME280;20721;47.402;8.550;2023-04-30T05:12:03;96139;;;14.32;57.02
2711;BME280;20721;47.402;8.550;2023-04-30T05:13:02;96138;;;14.37;56.95
2711;BME280;20721;47.402;8.550;2023-04-30T05:14:02;96135;;;14.36;56.74
2711;BME280;20721;47.402;8.550;2023-04-30T05:15:03;96137;;;14.39;56.75
2711;BME280;20721;47.402;8.550;2023-04-30T05:16:03;96134;;;14.37;56.75
2711;BME280;20721;47.402;8.550;2023-04-30T05:17:02;96138;;;14.28;56.65
2711;BME280;20721;47.402;8.550;2023-04-30T05:18:03;96138;;;14.25;56.95
2711;BME280;20721;47.402;8.550;2023-04-30T05:19:03;96132;;;14.21;56.91
2711;BME280;20721;47.402;8.550;2023-04-30T05:20:03;96131;;;14.22;56.88
2711;BME280;20721;47.402;8.550;2023-04-30T05:22:03;96129;;;14.23;56.74
2711;BME280;20721;47.402;8.550;2023-04-30T05:23:03;96132;;;14.06;57.07
2711;BME280;20721;47.402;8.550;2023-04-30T05:24:03;96136;;;13.89;57.50
2711;BME280;20721;47.402;8.550;2023-04-30T05:25:03;96134;;;13.66;58.04
2711;BME280;20721;47.402;8.550;2023-04-30T05:26:03;96133;;;13.58;58.31
2711;BME280;20721;47.402;8.550;2023-04-30T05:27:04;96136;;;13.62;58.36
2711;BME280;20721;47.402;8.550;2023-04-30T05:28:03;96134;;;13.64;58.11
2711;BME280;20721;47.402;8.550;2023-04-30T05:29:03;96131;;;13.68;58.22
2711;BME280;20721;47.402;8.550;2023-04-30T05:30:03;96132;;;13.77;58.07
2711;BME280;20721;47.402;8.550;2023-04-30T05:31:03;96131;;;13.85;57.91
2711;BME280;20721;47.402;8.550;2023-04-30T05:32:03;96130;;;13.88;57.87
2711;BME280;20721;47.402;8.550;2023-04-30T05:33:03;96135;;;13.99;57.73
2711;BME280;20721;47.402;8.550;2023-04-30T05:34:03;96134;;;14.07;57.61
2711;BME280;20721;47.402;8.550;2023-04-30T05:35:03;96133;;;14.02;57.14
2711;BME280;20721;47.402;8.550;2023-04-30T05:36:03;96131;;;14.08;57.19
2711;BME280;20721;47.402;8.550;2023-04-30T05:39:03;96129;;;14.04;57.23
2711;BME280;20721;47.402;8.550;2023-04-30T05:40:05;96129;;;14.02;57.50
2711;BME280;20721;47.402;8.550;2023-04-30T05:41:03;96127;;;13.99;57.23
2711;BME280;20721;47.402;8.550;2023-04-30T05:42:03;96132;;;14.00;57.21
2711;BME280;20721;47.402;8.550;2023-04-30T05:43:03;96131;;;13.99;57.31
2711;BME280;20721;47.402;8.550;2023-04-30T05:44:03;96132;;;14.01;57.35
2711;BME280;20721;47.402;8.550;2023-04-30T05:45:03;96135;;;14.04;57.43
2711;BME280;20721;47.402;8.550;2023-04-30T05:48:03;96132;;;14.13;57.23
2711;BME280;20721;47.402;8.550;2023-04-30T05:49:03;96135;;;14.19;56.89
2711;BME280;20721;47.402;8.550;2023-04-30T05:50:03;96131;;;14.24;56.87
2711;BME280;20721;47.402;8.550;2023-04-30T05:51:04;96137;;;14.30;56.78
2711;BME280;20721;47.402;8.550;2023-04-30T05:52:03;96135;;;14.34;56.51
2711;BME280;20721;47.402;8.550;2023-04-30T05:53:03;96140;;;14.33;56.41
2711;BME280;20721;47.402;8.550;2023-04-30T05:54:03;96142;;;14.34;56.56
2711;BME280;20721;47.402;8.550;2023-04-30T05:55:03;96139;;;14.35;56.29
2711;BME280;20721;47.402;8.550;2023-04-30T05:56:03;96138;;;14.32;56.35
2711;BME280;20721;47.402;8.550;2023-04-30T05:57:03;96140;;;14.35;56.49
2711;BME280;20721;47.402;8.550;2023-04-30T05:58:03;96139;;;14.37;56.21
2711;BME280;20721;47.402;8.550;2023-04-30T05:59:03;96141;;;14.35;56.36
2711;BME280;20721;47.402;8.550;2023-04-30T06:00:05;96145;;;14.39;56.50
2711;BME280;20721;47.402;8.550;2023-04-30T06:03:03;96143;;;14.41;56.34
2711;BME280;20721;47.402;8.550;2023-04-30T06:04:04;96141;;;14.39;56.08
2711;BME280;20721;47.402;8.550;2023-04-30T06:05:03;96142;;;14.36;56.21
2711;BME280;20721;47.402;8.550;2023-04-30T06:06:03;96142;;;14.37;56.34
2711;BME280;20721;47.402;8.550;2023-04-30T06:07:03;96140;;;14.39;56.26
2711;BME280;20721;47.402;8.550;2023-04-30T06:08:03;96140;;;14.34;56.23
2711;BME280;20721;47.402;8.550;2023-04-30T06:09:03;96140;;;14.31;56.29
2711;BME280;20721;47.402;8.550;2023-04-30T06:10:03;96139;;;14.28;56.40
2711;BME280;20721;47.402;8.550;2023-04-30T06:11:04;96141;;;14.29;56.39
2711;BME280;20721;47.402;8.550;2023-04-30T06:12:03;96135;;;14.31;56.54
2711;BME280;20721;47.402;8.550;2023-04-30T06:13:03;96135;;;14.27;56.36
2711;BME280;20721;47.402;8.550;2023-04-30T06:14:03;96137;;;14.31;56.52
2711;BME280;20721;47.402;8.550;2023-04-30T06:15:03;96138;;;14.20;56.70
2711;BME280;20721;47.402;8.550;2023-04-30T06:17:03;96137;;;14.16;56.58
2711;BME280;20721;47.402;8.550;2023-04-30T06:18:03;96136;;;14.19;56.58
2711;BME280;20721;47.402;8.550;2023-04-30T06:19:03;96133;;;14.16;56.87
2711;BME280;20721;47.402;8.550;2023-04-30T06:21:03;96134;;;14.19;56.99
2711;BME280;20721;47.402;8.550;2023-04-30T06:22:03;96131;;;14.15;57.05
2711;BME280;20721;47.402;8.550;2023-04-30T06:23:03;96135;;;14.13;56.96
2711;BME280;20721;47.402;8.550;2023-04-30T06:24:03;96129;;;14.19;57.22
2711;BME280;20721;47.402;8.550;2023-04-30T06:25:03;96134;;;14.23;56.95
2711;BME280;20721;47.402;8.550;2023-04-30T06:26:03;96127;;;14.29;56.72
2711;BME280;20721;47.402;8.550;2023-04-30T06:27:03;96135;;;14.32;56.67
2711;BME280;20721;47.402;8.550;2023-04-30T06:28:03;96134;;;14.27;56.57